Time;durP1;ratioP1;P1;durP2;ratioP2;P2;SDS_P1;SDS_P2;PMS_P1;PMS_P2;Temp;Humidity;BMP_temperature;BMP_pressure;BME280_temperature;BME280_humidity;BME280_pressure;Samples;Min_cycle;Max_cycle;Signal;HPM_P1;HPM_P2
2021/09/22 01:20:07;;;;;;;;;;;8.50;99.90;;;;;;5068110;28;20148;-78
2021/09/22 01:22:35;;;;;;;3.75;3.05;;;8.30;99.90;;;;;;5051338;28;19908;-78
2021/09/22 01:25:05;;;;;;;5.75;3.85;;;8.30;99.90;;;;;;5053120;28;20021;-78
2021/09/22 01:27:31;;;;;;;6.07;4.35;;;8.40;99.90;;;;;;5041023;28;20495;-78
2021/09/22 01:29:59;;;;;;;7.43;4.22;;;8.40;99.90;;;;;;5043747;28;20119;-78
2021/09/22 01:32:28;;;;;;;4.68;3.90;;;8.50;99.90;;;;;;5028151;28;20063;-79
2021/09/22 01:34:58;;;;;;;6.43;4.63;;;8.60;99.90;;;;;;5043220;28;20033;-79
2021/09/22 01:37:43;;;;;;;5.70;4.45;;;8.70;99.90;;;;;;5056699;28;20047;-78
2021/09/22 01:40:28;;;;;;;6.32;4.22;;;8.70;99.90;;;;;;5060728;28;20051;-78
2021/09/22 01:42:56;;;;;;;5.63;4.10;;;8.80;99.90;;;;;;5050083;28;20472;-78
2021/09/22 01:45:24;;;;;;;5.88;3.88;;;8.80;99.90;;;;;;5046194;28;20025;-79
2021/09/22 01:47:50;;;;;;;5.72;4.00;;;8.90;99.90;;;;;;5040173;28;20124;-79
2021/09/22 01:50:18;;;;;;;4.82;3.78;;;9.00;99.90;;;;;;5036037;28;20033;-78
2021/09/22 01:52:46;;;;;;;4.88;3.50;;;9.00;99.90;;;;;;5065804;28;20025;-78
2021/09/22 01:55:22;;;;;;;5.18;3.42;;;9.10;99.90;;;;;;5050178;28;20025;-78
2021/09/22 01:57:55;;;;;;;5.22;3.78;;;9.10;99.90;;;;;;5046431;28;20079;-78
2021/09/22 02:00:39;;;;;;;4.75;3.17;;;9.20;99.90;;;;;;5057783;28;20512;-78
2021/09/22 02:03:08;;;;;;;4.78;3.42;;;9.20;99.90;;;;;;5022279;28;20402;-79
2021/09/22 02:05:41;;;;;;;4.55;3.45;;;9.30;99.90;;;;;;5034764;28;20059;-78
2021/09/22 02:08:15;;;;;;;4.85;3.17;;;9.30;99.90;;;;;;5061873;28;20442;-79
2021/09/22 02:10:41;;;;;;;4.05;3.40;;;9.40;99.90;;;;;;5021072;28;20035;-78
2021/09/22 02:13:08;;;;;;;5.13;3.28;;;9.40;99.90;;;;;;5025544;28;20507;-78
2021/09/22 02:15:37;;;;;;;5.93;3.67;;;9.50;99.90;;;;;;5061630;28;20078;-78
2021/09/22 02:18:23;;;;;;;4.30;3.35;;;9.50;99.90;;;;;;5060114;28;20052;-79
2021/09/22 02:20:50;;;;;;;6.68;3.70;;;9.50;99.90;;;;;;5048606;28;20025;-78
2021/09/22 02:23:22;;;;;;;5.10;3.88;;;9.50;99.90;;;;;;5045788;28;20025;-78
2021/09/22 02:25:50;;;;;;;7.10;4.13;;;9.60;99.90;;;;;;5067627;28;20507;-78
2021/09/22 02:28:16;;;;;;;6.10;4.75;;;9.60;99.90;;;;;;5065222;28;20040;-78
2021/09/22 02:30:45;;;;;;;6.68;5.30;;;9.60;99.90;;;;;;5035653;28;20486;-79
2021/09/22 02:33:12;;;;;;;8.57;5.13;;;9.60;99.90;;;;;;5007646;28;20044;-78
2021/09/22 02:35:37;;;;;;;9.38;6.00;;;9.60;99.90;;;;;;5027365;28;20659;-78
2021/09/22 02:38:29;;;;;;;6.95;5.18;;;9.60;99.90;;;;;;5027749;28;20159;-78
2021/09/22 02:40:57;;;;;;;7.63;5.80;;;9.70;99.90;;;;;;5029007;28;20033;-78
2021/09/22 02:43:25;;;;;;;8.38;5.88;;;9.70;99.90;;;;;;5050653;28;20510;-77
2021/09/22 02:45:51;;;;;;;8.50;6.35;;;9.70;99.90;;;;;;5034431;28;20025;-78
2021/09/22 02:48:19;;;;;;;5.72;4.80;;;9.70;99.90;;;;;;5045702;28;20028;-78
2021/09/22 02:50:46;;;;;;;6.82;4.95;;;9.80;99.90;;;;;;5033566;28;20495;-78
2021/09/22 02:53:14;;;;;;;7.03;3.83;;;9.80;99.90;;;;;;5031533;28;20033;-78
2021/09/22 02:55:42;;;;;;;5.57;4.32;;;9.80;99.90;;;;;;5036454;28;20028;-78
2021/09/22 02:58:07;;;;;;;6.28;4.72;;;9.80;99.90;;;;;;5017712;28;20044;-78
2021/09/22 03:00:34;;;;;;;5.43;4.20;;;9.80;99.90;;;;;;5026112;28;20026;-78
2021/09/22 03:03:00;;;;;;;6.30;4.50;;;9.80;99.90;;;;;;5044874;28;20034;-78
2021/09/22 03:05:25;;;;;;;6.18;4.93;;;9.80;99.90;;;;;;5026817;28;20029;-79
2021/09/22 03:07:51;;;;;;;5.78;4.28;;;9.80;99.90;;;;;;5032577;28;20125;-78
2021/09/22 03:10:19;;;;;;;6.38;4.28;;;9.80;99.90;;;;;;5029187;28;20495;-78
2021/09/22 03:12:45;;;;;;;4.65;3.85;;;9.80;99.90;;;;;;5033874;28;20029;-78
2021/09/22 03:15:11;;;;;;;5.82;4.60;;;9.70;99.90;;;;;;5036129;28;20510;-78
2021/09/22 03:17:37;;;;;;;6.28;4.78;;;9.70;99.90;;;;;;5048247;28;20026;-77
2021/09/22 03:20:04;;;;;;;9.25;5.43;;;9.70;99.90;;;;;;5044744;28;20036;-78
2021/09/22 03:22:30;;;;;;;10.10;5.25;;;9.70;99.90;;;;;;5029371;28;20060;-78
2021/09/22 03:25:14;;;;;;;8.77;5.65;;;9.70;99.90;;;;;;5048460;28;20072;-78
2021/09/22 03:27:41;;;;;;;6.82;5.07;;;9.70;99.90;;;;;;5049691;28;20479;-78
2021/09/22 03:30:09;;;;;;;7.70;4.45;;;9.70;99.90;;;;;;5008212;28;20029;-78
2021/09/22 03:32:41;;;;;;;7.63;5.45;;;9.70;99.90;;;;;;5048064;28;20052;-78
2021/09/22 03:35:07;;;;;;;6.28;4.78;;;9.60;99.90;;;;;;5036279;28;20463;-78
2021/09/22 03:37:33;;;;;;;9.15;5.38;;;9.60;99.90;;;;;;5031366;28;20061;-79
2021/09/22 03:39:59;;;;;;;6.00;4.65;;;9.60;99.90;;;;;;5008369;28;20064;-78
2021/09/22 03:42:25;;;;;;;6.40;4.65;;;9.60;99.90;;;;;;5033087;28;20025;-78
2021/09/22 03:44:51;;;;;;;7.15;4.95;;;9.60;99.90;;;;;;5043395;28;20120;-78
2021/09/22 03:47:17;;;;;;;9.38;5.45;;;9.50;99.90;;;;;;5023975;28;20124;-78
2021/09/22 03:49:43;;;;;;;8.73;5.40;;;9.50;99.90;;;;;;5026091;28;20033;-78
2021/09/22 03:52:25;;;;;;;7.55;4.82;;;9.50;99.90;;;;;;5013321;28;20049;-79
2021/09/22 03:54:51;;;;;;;6.57;5.25;;;9.50;99.90;;;;;;5010362;28;20029;-78
2021/09/22 03:57:17;;;;;;;8.05;5.68;;;9.50;99.90;;;;;;4995424;28;20526;-78
2021/09/22 03:59:43;;;;;;;8.15;4.95;;;9.50;99.90;;;;;;5018163;28;20415;-78
2021/09/22 04:02:09;;;;;;;6.80;5.18;;;9.50;99.90;;;;;;5011437;28;20064;-78
2021/09/22 04:04:34;;;;;;;7.55;5.55;;;9.60;99.90;;;;;;5006249;28;20049;-78
2021/09/22 04:07:01;;;;;;;8.02;5.85;;;9.60;99.90;;;;;;5038926;28;20037;-78
2021/09/22 04:09:26;;;;;;;6.95;5.47;;;9.60;99.90;;;;;;5031522;28;20036;-79
2021/09/22 04:11:53;;;;;;;7.82;5.50;;;9.60;99.90;;;;;;5033905;28;20029;-78
2021/09/22 04:14:19;;;;;;;7.00;5.57;;;9.60;99.90;;;;;;5025733;28;20040;-78
2021/09/22 04:16:45;;;;;;;6.72;5.05;;;9.70;99.90;;;;;;5027848;28;20041;-79
2021/09/22 04:19:10;;;;;;;6.75;5.10;;;9.70;99.90;;;;;;5046247;28;20050;-78
2021/09/22 04:21:37;;;;;;;6.72;5.00;;;9.70;99.90;;;;;;5032050;28;20029;-78
2021/09/22 04:24:04;;;;;;;6.03;5.07;;;9.70;99.90;;;;;;5050299;28;20029;-78
2021/09/22 04:26:29;;;;;;;6.90;4.97;;;9.70;99.90;;;;;;5031915;28;20049;-78
2021/09/22 04:29:01;;;;;;;6.40;4.55;;;9.70;99.90;;;;;;4995607;28;20040;-78
2021/09/22 04:31:45;;;;;;;7.35;5.13;;;9.70;99.90;;;;;;5049070;28;20044;-79
2021/09/22 04:34:29;;;;;;;5.43;4.20;;;9.70;99.90;;;;;;5044270;28;20055;-77
2021/09/22 04:37:14;;;;;;;6.65;4.50;;;9.70;99.90;;;;;;5046269;28;20095;-77
2021/09/22 04:40:18;;;;;;;5.78;4.25;;;9.70;99.90;;;;;;4993184;28;20038;-78
2021/09/22 04:43:19;;;;;;;8.05;4.25;;;9.70;99.90;;;;;;4928647;29;20038;-78
2021/09/22 04:46:03;;;;;;;5.88;4.40;;;9.70;99.90;;;;;;5031418;28;20048;-78
2021/09/22 04:48:48;;;;;;;7.35;4.60;;;9.70;99.90;;;;;;5045234;28;20515;-78
2021/09/22 04:51:32;;;;;;;8.10;4.22;;;9.70;99.90;;;;;;5044971;28;20071;-78
2021/09/22 04:54:16;;;;;;;8.52;4.65;;;9.70;99.90;;;;;;5041376;28;20102;-78
2021/09/22 04:57:00;;;;;;;5.70;4.28;;;9.70;99.90;;;;;;5046913;28;20167;-78
2021/09/22 04:59:44;;;;;;;6.72;5.15;;;9.70;99.90;;;;;;5041355;28;20048;-78
2021/09/22 05:02:29;;;;;;;5.28;4.35;;;9.70;99.90;;;;;;5041574;28;20099;-78
2021/09/22 05:05:13;;;;;;;6.00;4.25;;;9.70;99.90;;;;;;5039784;28;20128;-78
2021/09/22 05:07:59;;;;;;;6.65;4.50;;;9.70;99.90;;;;;;5035710;28;20395;-78
2021/09/22 05:10:43;;;;;;;;;;;9.70;99.90;;;;;;5041781;28;20112;-78
2021/09/22 05:13:28;;;;;;;4.93;3.85;;;9.60;99.90;;;;;;5045505;28;19920;-78
2021/09/22 05:16:12;;;;;;;5.78;4.15;;;9.60;99.90;;;;;;5048837;28;20043;-78
2021/09/22 05:18:56;;;;;;;6.15;4.18;;;9.60;99.90;;;;;;5045462;28;20514;-78
2021/09/22 05:21:40;;;;;;;6.70;4.32;;;9.50;99.90;;;;;;5046180;28;20056;-78
2021/09/22 05:24:32;;;;;;;6.05;4.10;;;9.50;99.90;;;;;;5021269;28;20108;-78
2021/09/22 05:27:18;;;;;;;;;;;9.50;99.90;;;;;;5024994;28;20116;-78
2021/09/22 05:30:07;;;;;;;9.15;4.82;;;9.50;99.90;;;;;;5029967;28;19977;-78
2021/09/22 05:32:51;;;;;;;5.63;4.05;;;9.50;99.90;;;;;;5044285;28;20039;-78
2021/09/22 05:35:36;;;;;;;5.30;4.32;;;9.50;99.90;;;;;;5047484;28;20099;-78
2021/09/22 05:38:20;;;;;;;6.67;4.53;;;9.50;99.90;;;;;;5046412;28;20040;-78
2021/09/22 05:41:04;;;;;;;7.15;3.92;;;9.60;99.90;;;;;;5047830;28;20032;-78
2021/09/22 05:43:53;;;;;;;6.15;4.47;;;9.60;99.90;;;;;;5027263;28;20041;-78
2021/09/22 05:46:38;;;;;;;5.80;5.07;;;9.60;99.90;;;;;;5041236;28;20414;-78
2021/09/22 05:49:30;;;;;;;7.32;5.72;;;9.70;99.90;;;;;;5022819;28;20104;-78
2021/09/22 05:52:15;;;;;;;7.50;5.72;;;9.70;99.90;;;;;;5045215;28;20060;-78
2021/09/22 05:54:59;;;;;;;6.45;5.13;;;9.80;99.90;;;;;;5046900;28;20568;-78
2021/09/22 05:58:04;;;;;;;6.05;4.40;;;9.80;99.90;;;;;;5003389;28;20034;-79
2021/09/22 06:00:48;;;;;;;6.22;4.10;;;9.90;99.90;;;;;;4993864;28;20041;-79
2021/09/22 06:03:34;;;;;;;4.45;3.78;;;9.90;99.90;;;;;;5031691;28;20395;-79
2021/09/22 06:06:19;;;;;;;4.75;3.63;;;9.90;99.90;;;;;;5052048;28;20063;-79
2021/09/22 06:09:03;;;;;;;7.25;3.70;;;9.90;99.90;;;;;;5051045;28;20468;-79
2021/09/22 06:11:54;;;;;;;6.22;3.60;;;10.00;99.90;;;;;;5019422;28;20057;-79
2021/09/22 06:14:20;;;;;;;7.28;3.90;;;9.90;99.90;;;;;;5039453;28;20029;-79
2021/09/22 06:16:45;;;;;;;5.85;3.67;;;10.00;99.90;;;;;;5051352;28;20044;-78
2021/09/22 06:19:19;;;;;;;4.57;3.67;;;10.00;99.90;;;;;;5047192;28;21363;-79
2021/09/22 06:21:45;;;;;;;5.85;4.20;;;10.00;99.90;;;;;;5057730;28;20044;-79
2021/09/22 06:24:13;;;;;;;4.80;3.85;;;10.00;99.90;;;;;;5055414;28;20032;-79
2021/09/22 06:26:57;;;;;;;6.45;3.88;;;10.00;99.90;;;;;;5044708;28;20171;-79
2021/09/22 06:29:23;;;;;;;5.68;4.22;;;10.10;99.90;;;;;;5053580;28;20535;-78
2021/09/22 06:31:49;;;;;;;5.53;3.88;;;10.10;99.90;;;;;;5035309;28;20063;-79
2021/09/22 06:34:28;;;;;;;7.03;3.55;;;10.10;99.90;;;;;;5035827;28;20025;-79
2021/09/22 06:36:54;;;;;;;3.97;3.30;;;10.20;99.90;;;;;;5026766;28;20040;-79
2021/09/22 06:39:20;;;;;;;5.45;3.53;;;10.20;99.90;;;;;;5033988;28;20141;-79
2021/09/22 06:41:47;;;;;;;4.40;3.55;;;10.20;99.90;;;;;;5016578;28;20115;-78
2021/09/22 06:44:17;;;;;;;4.45;3.47;;;10.20;99.90;;;;;;5044192;28;20029;-78
2021/09/22 06:46:42;;;;;;;4.72;3.53;;;10.30;99.90;;;;;;5047012;28;20029;-79
2021/09/22 06:49:08;;;;;;;4.75;3.63;;;10.30;99.90;;;;;;5040210;28;20473;-79
2021/09/22 06:51:34;;;;;;;4.65;3.83;;;10.40;99.90;;;;;;5052911;28;20035;-79
2021/09/22 06:54:00;;;;;;;6.03;3.53;;;10.50;99.90;;;;;;5035020;28;20569;-78
2021/09/22 06:56:25;;;;;;;5.18;4.15;;;10.50;99.90;;;;;;5049943;28;20055;-79
2021/09/22 06:58:51;;;;;;;4.78;3.75;;;10.60;99.90;;;;;;5034223;28;20510;-79
2021/09/22 07:01:18;;;;;;;5.18;3.53;;;10.70;99.90;;;;;;5059209;28;20021;-78
2021/09/22 07:03:43;;;;;;;4.72;3.53;;;10.80;99.90;;;;;;5031649;28;20454;-79
2021/09/22 07:06:11;;;;;;;4.70;3.00;;;10.90;99.90;;;;;;5050548;28;20032;-79
2021/09/22 07:08:41;;;;;;;6.68;3.28;;;11.00;99.90;;;;;;5026200;28;20427;-79
2021/09/22 07:11:07;;;;;;;5.03;3.60;;;11.10;99.90;;;;;;5052129;28;20115;-78
2021/09/22 07:13:35;;;;;;;6.50;3.70;;;11.30;99.90;;;;;;5055248;28;20026;-78
2021/09/22 07:16:02;;;;;;;5.13;3.55;;;11.50;99.90;;;;;;5045377;28;20128;-79
2021/09/22 07:18:28;;;;;;;4.28;3.05;;;11.70;99.90;;;;;;5027726;28;20029;-79
2021/09/22 07:20:54;;;;;;;4.80;3.13;;;12.00;99.90;;;;;;5051850;28;20078;-79
2021/09/22 07:23:20;;;;;;;3.85;3.00;;;12.20;99.90;;;;;;5037920;28;20724;-79
2021/09/22 07:25:46;;;;;;;4.13;3.13;;;12.40;99.90;;;;;;5050974;28;20368;-79
2021/09/22 07:28:12;;;;;;;4.05;2.85;;;12.70;99.90;;;;;;5048726;28;20044;-79
2021/09/22 07:30:38;;;;;;;5.25;3.05;;;13.00;99.90;;;;;;5058358;28;20064;-79
2021/09/22 07:33:05;;;;;;;4.25;3.03;;;13.30;99.90;;;;;;5051620;28;20032;-78
2021/09/22 07:35:31;;;;;;;5.45;2.63;;;13.60;99.90;;;;;;5050739;28;20108;-79
2021/09/22 07:37:57;;;;;;;4.55;2.95;;;13.80;99.90;;;;;;5054180;28;20029;-79
2021/09/22 07:40:23;;;;;;;3.35;2.80;;;13.90;99.90;;;;;;5056074;28;20471;-79
2021/09/22 07:42:49;;;;;;;4.05;2.80;;;14.10;99.90;;;;;;5042135;28;20029;-79
2021/09/22 07:45:15;;;;;;;3.63;2.80;;;14.30;99.90;;;;;;5048150;28;20032;-79
2021/09/22 07:47:41;;;;;;;3.33;2.58;;;14.40;99.90;;;;;;5050926;28;20052;-79
2021/09/22 07:50:09;;;;;;;5.70;2.83;;;14.50;99.90;;;;;;5044124;28;20719;-79
2021/09/22 07:52:38;;;;;;;5.75;3.22;;;14.60;99.90;;;;;;5042498;28;20051;-79
2021/09/22 07:55:06;;;;;;;6.28;3.08;;;14.60;99.90;;;;;;5028919;28;20037;-79
2021/09/22 07:57:32;;;;;;;3.90;2.55;;;14.60;99.90;;;;;;5032558;28;20044;-79
2021/09/22 07:59:58;;;;;;;4.15;2.80;;;14.50;99.90;;;;;;5024022;28;20037;-79
2021/09/22 08:02:24;;;;;;;3.90;2.28;;;14.40;99.90;;;;;;5024259;28;20025;-79
2021/09/22 08:04:49;;;;;;;6.80;3.20;;;14.30;99.90;;;;;;5048895;28;20060;-80
2021/09/22 08:07:17;;;;;;;3.80;2.50;;;14.20;99.90;;;;;;5032054;28;20060;-79
2021/09/22 08:09:42;;;;;;;5.00;3.42;;;14.10;99.90;;;;;;5023791;28;20040;-79
2021/09/22 08:12:08;;;;;;;4.25;2.60;;;14.10;99.90;;;;;;5040888;28;20045;-79
2021/09/22 08:14:35;;;;;;;4.22;2.60;;;14.00;99.90;;;;;;5039224;28;20034;-79
2021/09/22 08:17:01;;;;;;;2.97;2.42;;;14.00;99.90;;;;;;5047165;28;20540;-79
2021/09/22 08:19:27;;;;;;;4.72;2.40;;;14.00;99.90;;;;;;5033732;28;20084;-79
2021/09/22 08:21:53;;;;;;;3.92;2.63;;;14.10;99.90;;;;;;5028437;28;20395;-79
2021/09/22 08:24:19;;;;;;;5.25;2.78;;;14.10;99.90;;;;;;5046123;28;20055;-79
2021/09/22 08:26:45;;;;;;;5.07;3.25;;;14.10;99.90;;;;;;5041942;28;20499;-79
2021/09/22 08:29:11;;;;;;;4.53;2.80;;;14.00;99.90;;;;;;5045357;28;20038;-79
2021/09/22 08:31:37;;;;;;;4.15;2.63;;;14.00;99.90;;;;;;5041919;28;20033;-79
2021/09/22 08:34:02;;;;;;;3.42;2.40;;;13.90;99.90;;;;;;5030295;28;20037;-80
2021/09/22 08:36:28;;;;;;;5.65;2.65;;;14.00;99.90;;;;;;5037816;28;20025;-79
2021/09/22 08:38:54;;;;;;;4.88;2.13;;;14.00;99.90;;;;;;5037094;28;20098;-80
2021/09/22 08:41:20;;;;;;;3.08;2.10;;;14.10;99.90;;;;;;5023335;28;20075;-79
2021/09/22 08:43:46;;;;;;;3.28;2.10;;;14.20;99.90;;;;;;5025966;28;20020;-80
2021/09/22 08:46:13;;;;;;;3.58;2.45;;;14.20;99.90;;;;;;5027260;28;20094;-80
2021/09/22 08:48:40;;;;;;;6.00;2.28;;;14.30;99.90;;;;;;5049973;28;20029;-79
2021/09/22 08:51:06;;;;;;;2.90;2.08;;;14.40;99.90;;;;;;5037889;28;20033;-80
2021/09/22 08:53:32;;;;;;;2.22;1.90;;;14.50;99.90;;;;;;5031636;28;20057;-80
2021/09/22 08:55:57;;;;;;;3.85;2.63;;;14.60;99.90;;;;;;5049980;28;20444;-80
2021/09/22 08:58:23;;;;;;;4.78;2.70;;;14.70;99.90;;;;;;5045886;28;20507;-79
2021/09/22 09:00:49;;;;;;;3.85;2.53;;;14.60;99.90;;;;;;5041006;28;20032;-79
2021/09/22 09:03:39;;;;;;;7.55;2.22;;;14.60;99.90;;;;;;5049759;28;20070;-78
2021/09/22 09:06:17;;;;;;;3.25;2.10;;;14.70;99.90;;;;;;5047896;28;20056;-79
2021/09/22 09:08:43;;;;;;;4.32;2.63;;;14.70;99.90;;;;;;5033862;28;20037;-79
2021/09/22 09:11:08;;;;;;;6.55;2.67;;;14.80;99.90;;;;;;5052672;23;21994;-87
2021/09/22 09:13:53;;;;;;;4.75;2.38;;;14.90;99.90;;;;;;5026837;28;20034;-87
2021/09/22 09:16:21;;;;;;;4.38;1.73;;;14.90;99.90;;;;;;5025739;28;20032;-86
2021/09/22 09:18:49;;;;;;;4.75;2.03;;;15.00;99.90;;;;;;5039759;28;20032;-86
2021/09/22 09:21:15;;;;;;;4.68;2.25;;;15.10;99.90;;;;;;5045016;28;20041;-86
2021/09/22 09:23:49;;;;;;;6.55;2.17;;;15.20;99.90;;;;;;5046666;28;20037;-86
2021/09/22 09:26:28;;;;;;;4.70;2.53;;;15.30;99.90;;;;;;5028893;28;20040;-86
2021/09/22 09:28:58;;;;;;;4.60;2.33;;;15.50;99.90;;;;;;5028556;28;20494;-87
2021/09/22 09:31:32;;;;;;;4.22;1.75;;;15.60;99.90;;;;;;5026389;28;20030;-85
2021/09/22 09:34:00;;;;;;;2.92;1.70;;;15.80;99.90;;;;;;5027941;28;20162;-87
2021/09/22 09:36:25;;;;;;;4.68;1.38;;;16.00;99.90;;;;;;5026711;28;20029;-87
2021/09/22 09:39:03;;;;;;;3.55;1.63;;;16.00;99.90;;;;;;5022050;28;20064;-86
2021/09/22 09:41:48;;;;;;;4.80;2.30;;;15.90;99.90;;;;;;5017849;28;20032;-86
2021/09/22 09:44:17;;;;;;;3.47;1.65;;;15.90;99.90;;;;;;5023912;28;20037;-88
2021/09/22 09:46:44;;;;;;;7.72;1.98;;;15.80;99.90;;;;;;5022371;28;20033;-90
2021/09/22 09:49:14;;;;;;;3.53;1.50;;;15.80;99.90;;;;;;5034514;28;20033;-89
2021/09/22 09:51:51;;;;;;;2.58;1.50;;;15.90;99.90;;;;;;5011665;28;20057;-87
2021/09/22 09:54:24;;;;;;;3.58;1.98;;;15.90;99.90;;;;;;5032268;28;20496;-87
2021/09/22 09:56:52;;;;;;;6.10;1.75;;;16.00;99.90;;;;;;5034156;28;20121;-86
2021/09/22 09:59:20;;;;;;;3.25;1.45;;;16.00;99.90;;;;;;5038631;28;20021;-89
2021/09/22 10:01:54;;;;;;;2.88;1.42;;;16.10;99.90;;;;;;5023254;28;20033;-88
2021/09/22 10:04:23;;;;;;;3.42;1.95;;;16.20;99.90;;;;;;5038275;28;20033;-88
2021/09/22 10:06:50;;;;;;;5.03;1.40;;;16.30;99.90;;;;;;5035088;28;20083;-89
2021/09/22 10:09:17;;;;;;;4.28;1.52;;;16.50;99.90;;;;;;5050753;28;20120;-90
2021/09/22 10:11:45;;;;;;;4.63;1.85;;;16.50;99.90;;;;;;5013941;28;20043;-90
2021/09/22 10:14:15;;;;;;;4.75;1.67;;;16.60;99.90;;;;;;5037088;28;20056;-88
2021/09/22 10:16:42;;;;;;;6.78;1.73;;;16.60;99.90;;;;;;5043842;28;20483;-88
2021/09/22 10:19:08;;;;;;;4.13;1.90;;;16.70;99.90;;;;;;5020701;28;20117;-88
2021/09/22 10:21:37;;;;;;;3.35;1.42;;;16.70;99.90;;;;;;5053404;28;20056;-87
2021/09/22 10:24:07;;;;;;;4.78;1.90;;;16.80;99.90;;;;;;5035511;28;20033;-88
2021/09/22 10:26:34;;;;;;;3.83;1.83;;;16.80;99.90;;;;;;5039422;28;20029;-88
2021/09/22 10:29:27;;;;;;;3.92;1.80;;;16.60;99.90;;;;;;5022134;28;20037;-90
2021/09/22 10:31:55;;;;;;;3.58;1.83;;;16.60;99.90;;;;;;5033168;28;20025;-90
2021/09/22 10:34:34;;;;;;;3.95;1.63;;;16.70;99.90;;;;;;5036415;28;20044;-89
2021/09/22 10:37:05;;;;;;;5.75;1.50;;;16.70;99.90;;;;;;5054629;28;20036;-90
2021/09/22 10:39:34;;;;;;;2.92;1.60;;;16.70;99.90;;;;;;5028389;28;20039;-88
2021/09/22 10:42:01;;;;;;;3.15;1.60;;;16.80;99.90;;;;;;5050772;28;20310;-90
2021/09/22 10:44:35;;;;;;;5.57;1.90;;;16.90;99.90;;;;;;5017014;28;20434;-89
2021/09/22 10:47:27;;;;;;;2.85;1.40;;;16.90;99.90;;;;;;5035488;28;20111;-90
2021/09/22 10:49:54;;;;;;;5.28;1.90;;;17.00;99.90;;;;;;5052099;28;20033;-90
2021/09/22 10:52:30;;;;;;;4.43;1.67;;;16.90;99.90;;;;;;5034640;28;20018;-86
2021/09/22 10:55:15;;;;;;;2.70;1.70;;;16.90;99.90;;;;;;5029715;28;20032;-86
2021/09/22 10:57:43;;;;;;;6.05;1.70;;;16.90;99.90;;;;;;5032378;28;20017;-87
2021/09/22 11:00:16;;;;;;;3.40;1.73;;;16.90;99.90;;;;;;5034671;28;20052;-86
2021/09/22 11:02:53;;;;;;;3.95;2.10;;;16.80;99.90;;;;;;5036100;28;20048;-89
2021/09/22 11:05:28;;;;;;;3.92;1.80;;;16.80;99.90;;;;;;5035755;28;20155;-87
2021/09/22 11:08:08;;;;;;;3.65;1.88;;;16.70;99.90;;;;;;5033571;28;20116;-87
2021/09/22 11:11:00;;;;;;;2.83;1.65;;;16.80;99.90;;;;;;5031995;28;20066;-88
2021/09/22 11:13:34;;;;;;;4.03;1.77;;;16.80;99.90;;;;;;5026419;28;20044;-91
2021/09/22 11:16:10;;;;;;;2.85;1.63;;;16.90;99.90;;;;;;5020177;28;20029;-90
2021/09/22 11:18:40;;;;;;;4.38;1.65;;;16.90;99.90;;;;;;5035918;28;20090;-91
2021/09/22 11:21:06;;;;;;;2.30;1.65;;;16.90;99.90;;;;;;5031479;28;20081;-91
2021/09/22 11:23:32;;;;;;;4.20;1.80;;;17.00;99.90;;;;;;5034965;28;20036;-90
2021/09/22 11:26:09;;;;;;;4.32;1.80;;;17.00;99.90;;;;;;5010077;28;20033;-88
2021/09/22 11:28:36;;;;;;;3.05;1.70;;;17.00;99.90;;;;;;5008221;28;20037;-90
2021/09/22 11:31:03;;;;;;;3.78;1.58;;;17.10;99.90;;;;;;5049436;28;20403;-87
2021/09/22 11:33:29;;;;;;;3.25;1.80;;;17.10;99.90;;;;;;5033806;28;20029;-88
2021/09/22 11:36:04;;;;;;;4.63;2.10;;;17.20;99.90;;;;;;5051029;28;20021;-88
2021/09/22 11:38:35;;;;;;;2.97;1.88;;;17.20;99.90;;;;;;5034025;28;20044;-87
2021/09/22 11:41:02;;;;;;;4.53;1.90;;;17.10;99.90;;;;;;5049433;28;20032;-86
2021/09/22 11:43:28;;;;;;;4.38;1.88;;;17.10;99.90;;;;;;5050371;28;20299;-91
2021/09/22 11:46:02;;;;;;;2.08;1.40;;;17.00;99.90;;;;;;5051028;28;20142;-91
2021/09/22 11:48:32;;;;;;;4.32;1.63;;;16.90;99.90;;;;;;5015362;28;20105;-89
2021/09/22 11:51:00;;;;;;;3.47;1.60;;;16.80;99.90;;;;;;5036198;28;20422;-88
2021/09/22 11:53:30;;;;;;;7.00;2.00;;;16.70;99.90;;;;;;5017817;28;20033;-87
2021/09/22 11:55:56;;;;;;;2.08;1.55;;;16.70;99.90;;;;;;5034519;28;20033;-88
2021/09/22 11:58:27;;;;;;;3.67;1.60;;;16.60;99.90;;;;;;5031087;28;20033;-88
2021/09/22 12:00:58;;;;;;;3.38;1.77;;;16.60;99.90;;;;;;5045729;28;20032;-87
2021/09/22 12:03:29;;;;;;;3.45;1.67;;;16.50;99.90;;;;;;5016841;28;20090;-88
2021/09/22 12:06:16;;;;;;;3.78;1.50;;;16.50;99.90;;;;;;5035256;28;20696;-86
2021/09/22 12:08:44;;;;;;;3.63;1.83;;;16.50;99.90;;;;;;5030640;28;20520;-89
2021/09/22 12:11:13;;;;;;;3.92;1.88;;;16.50;99.90;;;;;;5017360;28;20039;-89
2021/09/22 12:13:48;;;;;;;5.50;1.50;;;16.60;99.90;;;;;;5050714;28;20090;-88
2021/09/22 12:16:18;;;;;;;5.72;2.35;;;16.60;99.90;;;;;;5050036;28;20299;-90
2021/09/22 12:19:04;;;;;;;6.63;1.92;;;16.60;99.90;;;;;;5016464;28;20031;-88
2021/09/22 12:21:30;;;;;;;;;;;16.60;99.90;;;;;;5032787;28;20041;-88
2021/09/22 12:24:06;;;;;;;3.58;2.28;;;16.70;99.90;;;;;;5050433;28;19912;-87
2021/09/22 12:26:32;;;;;;;4.90;1.75;;;16.60;99.90;;;;;;5014732;28;20038;-90
2021/09/22 12:29:06;;;;;;;3.75;1.70;;;16.50;99.90;;;;;;5031152;28;20033;-87
2021/09/22 12:31:42;;;;;;;4.38;2.00;;;16.50;99.90;;;;;;5042307;28;20025;-87
2021/09/22 12:34:25;;;;;;;2.72;1.60;;;16.40;99.90;;;;;;5034340;28;20479;-88
2021/09/22 12:36:53;;;;;;;3.75;1.75;;;16.30;99.90;;;;;;5051120;28;20033;-89
2021/09/22 12:39:23;;;;;;;3.65;1.90;;;16.40;99.90;;;;;;5033555;28;20029;-89
2021/09/22 12:42:06;;;;;;;5.78;2.40;;;16.30;99.90;;;;;;5033966;28;20132;-89
2021/09/22 12:44:52;;;;;;;7.00;1.70;;;16.30;99.90;;;;;;5018370;28;20053;-89
2021/09/22 12:47:19;;;;;;;2.88;1.85;;;16.20;99.90;;;;;;5033594;28;20036;-87
2021/09/22 12:50:06;;;;;;;2.42;1.42;;;16.10;99.90;;;;;;5017583;28;20045;-91
2021/09/22 12:52:32;;;;;;;3.35;1.52;;;16.10;99.90;;;;;;5050730;28;20036;-89
2021/09/22 12:54:57;;;;;;;2.40;1.90;;;16.10;99.90;;;;;;5034206;28;20063;-89
2021/09/22 12:57:23;;;;;;;4.03;1.92;;;16.10;99.90;;;;;;5034110;28;20124;-88
2021/09/22 12:59:49;;;;;;;3.75;1.70;;;16.20;99.90;;;;;;5017206;28;20545;-89
2021/09/22 13:02:26;;;;;;;3.70;1.95;;;16.20;99.90;;;;;;5009153;28;20072;-92
2021/09/22 13:04:52;;;;;;;3.13;1.48;;;16.20;99.90;;;;;;5028547;28;20037;-89
2021/09/22 13:07:22;;;;;;;4.82;1.63;;;16.30;99.90;;;;;;5029451;28;20117;-89
2021/09/22 13:10:00;;;;;;;2.53;1.80;;;16.30;99.90;;;;;;5030000;28;20479;-86
2021/09/22 13:12:28;;;;;;;2.60;1.60;;;16.30;99.90;;;;;;5047219;28;20174;-90
2021/09/22 13:14:54;;;;;;;6.13;2.00;;;16.30;99.90;;;;;;5030452;28;20519;-87
2021/09/22 13:17:20;;;;;;;3.83;1.70;;;16.30;99.90;;;;;;5012686;28;20063;-90
2021/09/22 13:19:46;;;;;;;3.38;1.65;;;16.40;99.90;;;;;;5032281;28;20039;-88
2021/09/22 13:22:12;;;;;;;2.13;1.60;;;16.50;99.90;;;;;;5015374;28;20025;-89
2021/09/22 13:24:38;;;;;;;3.00;1.40;;;16.50;99.90;;;;;;5032190;28;20548;-89
2021/09/22 13:27:04;;;;;;;2.75;1.85;;;16.60;99.90;;;;;;5011538;28;20037;-89
2021/09/22 13:29:31;;;;;;;3.85;1.70;;;16.60;99.90;;;;;;5031200;28;20021;-89
2021/09/22 13:32:05;;;;;;;2.50;1.48;;;16.70;99.90;;;;;;5028165;28;20476;-90
2021/09/22 13:34:32;;;;;;;2.55;1.70;;;16.70;99.90;;;;;;5043673;28;20087;-88
2021/09/22 13:36:59;;;;;;;4.60;1.77;;;16.60;99.90;;;;;;5025856;28;20025;-89
2021/09/22 13:39:25;;;;;;;4.50;1.85;;;16.60;99.90;;;;;;5005243;28;20044;-88
2021/09/22 13:41:51;;;;;;;3.53;1.92;;;16.60;99.90;;;;;;5046439;28;20040;-87
2021/09/22 13:44:17;;;;;;;3.20;1.48;;;16.70;99.90;;;;;;4997545;28;20033;-87
2021/09/22 13:46:47;;;;;;;2.47;1.73;;;16.80;99.90;;;;;;5038556;28;20112;-89
2021/09/22 13:49:13;;;;;;;4.35;1.77;;;16.80;99.90;;;;;;5011967;28;20033;-87
2021/09/22 13:51:44;;;;;;;3.08;1.50;;;16.90;99.90;;;;;;5022552;28;20026;-87
2021/09/22 13:54:10;;;;;;;5.90;2.08;;;16.90;99.90;;;;;;5037265;28;20029;-89
2021/09/22 13:56:35;;;;;;;2.20;1.70;;;17.00;99.90;;;;;;5028462;28;20406;-88
2021/09/22 13:59:01;;;;;;;2.63;1.50;;;17.10;99.90;;;;;;5027601;28;20049;-88
2021/09/22 14:01:27;;;;;;;4.50;1.50;;;17.20;99.90;;;;;;5047438;28;20033;-88
2021/09/22 14:03:53;;;;;;;3.45;1.60;;;17.20;99.90;;;;;;5014285;28;20639;-88
2021/09/22 14:06:19;;;;;;;4.47;1.40;;;17.20;99.90;;;;;;5020964;28;20305;-87
2021/09/22 14:08:44;;;;;;;3.88;1.55;;;17.10;99.90;;;;;;5029363;28;20041;-86
2021/09/22 14:11:10;;;;;;;2.60;1.50;;;17.10;99.90;;;;;;5001932;28;20041;-86
2021/09/22 14:13:38;;;;;;;1.58;1.30;;;17.20;99.90;;;;;;5044361;28;20068;-86
2021/09/22 14:16:04;;;;;;;4.70;1.65;;;17.20;99.90;;;;;;5024297;28;20087;-86
2021/09/22 14:18:30;;;;;;;2.80;1.60;;;17.30;99.90;;;;;;5004535;28;20037;-89
2021/09/22 14:20:57;;;;;;;2.22;1.48;;;17.30;99.90;;;;;;5034078;28;20548;-89
2021/09/22 14:23:24;;;;;;;3.22;1.70;;;17.40;99.90;;;;;;5046276;28;20033;-89
2021/09/22 14:25:50;;;;;;;2.83;1.38;;;17.50;99.90;;;;;;5026396;28;20120;-88
2021/09/22 14:28:18;;;;;;;3.25;1.80;;;17.50;99.90;;;;;;4980673;28;20095;-87
2021/09/22 14:30:44;;;;;;;5.60;1.45;;;17.60;99.90;;;;;;5007824;28;20074;-87